Time;durP1;ratioP1;P1;durP2;ratioP2;P2;SDS_P1;SDS_P2;PMS_P1;PMS_P2;Temp;Humidity;BMP_temperature;BMP_pressure;BME280_temperature;BME280_humidity;BME280_pressure;Samples;Min_cycle;Max_cycle;Signal;HPM_P1;HPM_P2
2021/11/15 00:01:50;;;;;;;21.88;13.10;;;;;;;8.16;100.00;101319.44;5075385;28;20115;-75
2021/11/15 00:04:16;;;;;;;15.73;10.65;;;;;;;8.12;100.00;101321.91;5095262;28;20112;-75
2021/11/15 00:06:42;;;;;;;17.23;11.18;;;;;;;8.06;100.00;101325.72;5080664;28;20070;-75
2021/11/15 00:09:07;;;;;;;18.08;11.90;;;;;;;8.02;100.00;101325.41;5083207;28;20032;-75
2021/11/15 00:11:33;;;;;;;17.02;11.63;;;;;;;7.97;100.00;101327.25;5054518;28;20024;-75
2021/11/15 00:13:59;;;;;;;18.83;12.35;;;;;;;7.94;100.00;101334.13;5068299;28;20103;-75
2021/11/15 00:16:24;;;;;;;19.65;12.95;;;;;;;7.90;100.00;101332.13;5075273;28;20051;-75
2021/11/15 00:18:50;;;;;;;19.77;12.32;;;;;;;7.87;100.00;101327.13;5059315;28;20028;-76
2021/11/15 00:21:15;;;;;;;18.83;13.05;;;;;;;7.81;100.00;101334.50;5068281;28;20024;-75
2021/11/15 00:23:41;;;;;;;16.10;11.52;;;;;;;7.80;100.00;101336.44;5058823;28;20067;-75
2021/11/15 00:26:06;;;;;;;17.10;11.85;;;;;;;7.71;100.00;101326.88;5074818;28;20024;-76
2021/11/15 00:28:32;;;;;;;18.00;12.57;;;;;;;7.69;100.00;101331.00;5095913;28;20028;-75
2021/11/15 00:30:57;;;;;;;18.23;12.40;;;;;;;7.67;100.00;101328.50;5075167;28;20384;-75
2021/11/15 00:33:23;;;;;;;18.27;12.13;;;;;;;7.64;100.00;101328.19;5094934;28;20035;-76
2021/11/15 00:35:48;;;;;;;19.60;13.20;;;;;;;7.60;100.00;101319.53;5063749;28;20047;-76
2021/11/15 00:38:14;;;;;;;17.63;12.30;;;;;;;7.57;100.00;101317.28;5067036;28;20392;-75
2021/11/15 00:40:39;;;;;;;16.70;11.70;;;;;;;7.53;100.00;101319.72;5087301;28;20039;-76
2021/11/15 00:43:06;;;;;;;19.98;13.02;;;;;;;7.51;100.00;101315.56;5077463;28;20031;-75
2021/11/15 00:45:31;;;;;;;17.00;11.73;;;;;;;7.49;100.00;101307.50;5066886;28;20060;-75
2021/11/15 00:47:57;;;;;;;18.83;11.93;;;;;;;7.46;100.00;101310.78;5069863;28;20024;-75
2021/11/15 00:50:22;;;;;;;17.85;12.27;;;;;;;7.45;100.00;101300.00;5080534;28;20384;-75
2021/11/15 00:52:49;;;;;;;17.40;11.85;;;;;;;7.43;100.00;101321.50;5074797;28;20039;-76
2021/11/15 00:55:15;;;;;;;18.65;13.13;;;;;;;7.40;100.00;101300.75;5059783;28;20111;-75
2021/11/15 00:57:42;;;;;;;17.95;13.00;;;;;;;7.38;100.00;101312.06;5082653;28;20028;-75
2021/11/15 01:00:11;;;;;;;17.48;12.18;;;;;;;7.34;100.00;101304.53;5069176;28;20115;-76
2021/11/15 01:02:37;;;;;;;21.20;12.90;;;;;;;7.31;100.00;101305.03;5061634;28;20111;-76
2021/11/15 01:05:03;;;;;;;20.27;12.65;;;;;;;7.31;100.00;101300.34;5065156;28;20049;-76
2021/11/15 01:07:28;;;;;;;17.08;11.63;;;;;;;7.28;100.00;101303.59;5086200;28;20039;-76
2021/11/15 01:09:54;;;;;;;17.65;11.45;;;;;;;7.30;100.00;101301.44;5092910;28;20024;-76
2021/11/15 01:12:19;;;;;;;17.40;11.73;;;;;;;7.22;100.00;101307.38;5064629;28;20058;-76
2021/11/15 01:14:44;;;;;;;18.88;12.60;;;;;;;7.17;100.00;101299.00;5078876;28;20036;-76
2021/11/15 01:17:10;;;;;;;20.23;13.07;;;;;;;7.13;100.00;101308.88;5080320;28;20435;-76
2021/11/15 01:19:36;;;;;;;19.52;13.45;;;;;;;7.11;100.00;101303.63;5080432;28;20032;-75
2021/11/15 01:22:01;;;;;;;20.23;14.18;;;;;;;7.09;100.00;101311.31;5080480;28;20110;-76
2021/11/15 01:24:27;;;;;;;17.20;12.20;;;;;;;7.08;100.00;101297.78;5096307;28;20030;-76
2021/11/15 01:26:52;;;;;;;17.33;12.30;;;;;;;7.07;100.00;101312.66;5080876;28;20035;-76
2021/11/15 01:29:18;;;;;;;18.73;11.95;;;;;;;7.04;100.00;101316.75;5068786;28;20021;-76
2021/11/15 01:31:43;;;;;;;17.17;11.98;;;;;;;7.02;100.00;101316.19;5058542;28;20663;-75
2021/11/15 01:34:09;;;;;;;19.42;13.35;;;;;;;6.99;100.00;101322.19;5089265;28;20118;-76
2021/11/15 01:36:34;;;;;;;17.65;12.45;;;;;;;7.00;100.00;101323.88;5069610;28;20065;-76
2021/11/15 01:39:00;;;;;;;18.05;12.77;;;;;;;6.95;100.00;101318.25;5054630;28;20112;-76
2021/11/15 01:41:25;;;;;;;19.45;12.50;;;;;;;6.93;100.00;101318.50;5085451;28;20024;-76
2021/11/15 01:43:51;;;;;;;19.85;11.90;;;;;;;6.91;100.00;101315.16;5051627;28;20036;-76
2021/11/15 01:46:16;;;;;;;21.35;11.73;;;;;;;6.88;100.00;101310.16;5074357;28;20055;-75
2021/11/15 01:48:42;;;;;;;19.70;12.35;;;;;;;6.91;100.00;101315.16;5068918;28;20024;-75
2021/11/15 01:51:08;;;;;;;22.38;12.73;;;;;;;6.86;100.00;101314.25;5061507;28;20031;-75
2021/11/15 01:53:33;;;;;;;18.98;11.63;;;;;;;6.86;100.00;101315.06;5077641;28;20031;-75
2021/11/15 01:55:59;;;;;;;18.05;11.70;;;;;;;6.81;100.00;101314.97;5067453;28;20387;-76
2021/11/15 01:58:24;;;;;;;19.77;12.10;;;;;;;6.79;100.00;101314.38;5095715;28;20373;-75
2021/11/15 02:00:51;;;;;;;20.80;12.73;;;;;;;6.75;100.00;101321.50;5076320;28;20031;-76
2021/11/15 02:03:18;;;;;;;20.67;12.50;;;;;;;6.71;100.00;101312.91;5097446;28;20063;-75
2021/11/15 02:05:43;;;;;;;19.33;13.02;;;;;;;6.67;100.00;101311.69;5078147;28;20035;-75
2021/11/15 02:08:09;;;;;;;22.10;12.57;;;;;;;6.67;100.00;101314.47;5093795;28;20100;-75
2021/11/15 02:10:35;;;;;;;19.60;12.57;;;;;;;6.65;100.00;101315.78;5069157;28;20043;-75
2021/11/15 02:13:00;;;;;;;21.48;13.75;;;;;;;6.64;100.00;101308.59;5066850;28;20078;-76
2021/11/15 02:15:26;;;;;;;19.58;12.20;;;;;;;6.61;100.00;101309.09;5074547;28;20049;-76
2021/11/15 02:17:51;;;;;;;21.15;13.25;;;;;;;6.59;100.00;101311.28;5091240;28;20058;-76
2021/11/15 02:20:21;;;;;;;17.98;12.32;;;;;;;6.56;100.00;101303.50;5046602;28;20040;-76
2021/11/15 02:22:47;;;;;;;19.55;12.52;;;;;;;6.53;100.00;101306.75;5060665;28;20024;-76
2021/11/15 02:25:14;;;;;;;18.83;12.65;;;;;;;6.52;100.00;101307.81;5079999;28;20440;-76
2021/11/15 02:27:39;;;;;;;22.88;13.55;;;;;;;6.46;100.00;101313.25;5066026;28;20024;-76
2021/11/15 02:30:07;;;;;;;22.58;13.35;;;;;;;6.43;100.00;101313.72;5043013;28;20427;-76
2021/11/15 02:32:33;;;;;;;23.90;14.77;;;;;;;6.41;100.00;101318.69;5077688;28;20035;-76
2021/11/15 02:34:58;;;;;;;20.77;12.93;;;;;;;6.39;100.00;101314.50;5079740;28;20036;-76
2021/11/15 02:37:24;;;;;;;20.50;13.65;;;;;;;6.36;100.00;101317.75;5093958;28;20027;-75
2021/11/15 02:39:50;;;;;;;23.45;13.55;;;;;;;6.32;100.00;101322.06;5096411;28;20040;-76
2021/11/15 02:42:16;;;;;;;25.45;15.73;;;;;;;6.29;100.00;101323.41;5077757;28;20032;-76
2021/11/15 02:44:41;;;;;;;30.30;17.30;;;;;;;6.22;100.00;101314.44;5091625;28;20550;-75
2021/11/15 02:47:07;;;;;;;33.08;18.45;;;;;;;6.24;100.00;101315.00;5082306;28;20032;-75
2021/11/15 02:49:32;;;;;;;26.40;15.68;;;;;;;6.19;100.00;101306.66;5050721;28;20020;-76
2021/11/15 02:51:58;;;;;;;28.02;15.73;;;;;;;6.21;100.00;101316.38;5062190;28;20077;-76
2021/11/15 02:54:26;;;;;;;29.40;15.88;;;;;;;6.22;100.00;101318.03;5079463;28;20035;-76
2021/11/15 02:56:52;;;;;;;25.27;15.60;;;;;;;6.16;100.00;101309.91;5060918;28;20035;-76
2021/11/15 02:59:17;;;;;;;26.63;15.88;;;;;;;6.16;100.00;101309.91;5086426;28;20054;-76
2021/11/15 03:01:46;;;;;;;24.25;15.07;;;;;;;6.15;100.00;101310.97;5085625;28;20035;-76
2021/11/15 03:04:13;;;;;;;30.20;19.00;;;;;;;6.12;100.00;101311.47;5076190;28;20063;-76
2021/11/15 03:06:39;;;;;;;29.45;17.58;;;;;;;6.11;100.00;101320.84;5076505;28;20035;-76
2021/11/15 03:09:04;;;;;;;28.00;15.80;;;;;;;6.09;100.00;101317.47;5061142;28;20039;-76
2021/11/15 03:11:30;;;;;;;25.70;16.30;;;;;;;6.06;100.00;101313.28;5069657;28;20036;-76
2021/11/15 03:13:56;;;;;;;26.30;16.45;;;;;;;6.01;100.00;101311.25;5088682;28;20032;-76
2021/11/15 03:16:21;;;;;;;28.70;17.20;;;;;;;5.97;100.00;101304.56;5073270;28;20404;-76
2021/11/15 03:18:46;;;;;;;30.10;17.90;;;;;;;5.97;100.00;101304.56;5095478;28;20062;-76
2021/11/15 03:21:20;;;;;;;30.20;17.25;;;;;;;5.99;100.00;101301.53;5050195;28;20024;-76
2021/11/15 03:23:48;;;;;;;32.05;18.17;;;;;;;5.98;100.00;101299.88;5059184;28;20032;-76
2021/11/15 03:26:13;;;;;;;25.67;15.55;;;;;;;5.97;100.00;101299.03;5079086;28;20027;-75
2021/11/15 03:28:41;;;;;;;26.40;15.70;;;;;;;5.98;100.00;101302.63;5065574;28;20028;-75
2021/11/15 03:31:11;;;;;;;25.77;15.15;;;;;;;5.95;100.00;101295.69;5076076;28;20052;-76
2021/11/15 03:33:37;;;;;;;28.75;16.83;;;;;;;5.94;100.00;101293.19;5062102;28;20059;-76
2021/11/15 03:36:04;;;;;;;28.85;16.35;;;;;;;5.94;100.00;101290.44;5062241;28;20437;-76
2021/11/15 03:38:29;;;;;;;26.88;15.32;;;;;;;5.90;100.00;101284.53;5058295;28;20039;-75
2021/11/15 03:40:56;;;;;;;28.75;16.00;;;;;;;5.88;100.00;101283.94;5074568;28;20028;-76
2021/11/15 03:43:22;;;;;;;27.90;16.23;;;;;;;5.83;100.00;101284.66;5064363;28;20036;-75
2021/11/15 03:45:47;;;;;;;30.60;17.48;;;;;;;5.83;100.00;101273.63;5076802;28;20435;-75
2021/11/15 03:48:13;;;;;;;30.20;16.23;;;;;;;5.82;100.00;101282.13;5094745;28;20024;-76
2021/11/15 03:50:39;;;;;;;27.90;15.93;;;;;;;5.77;100.00;101282.06;5081311;28;20426;-75
2021/11/15 03:53:06;;;;;;;29.10;16.48;;;;;;;5.77;100.00;101288.41;5083558;28;20656;-75
2021/11/15 03:55:31;;;;;;;27.42;16.02;;;;;;;5.74;100.00;101288.03;5090132;28;20506;-75
2021/11/15 03:57:57;;;;;;;29.00;16.60;;;;;;;5.69;100.00;101293.47;5068319;28;20029;-76
2021/11/15 04:00:25;;;;;;;28.95;16.52;;;;;;;5.68;100.00;101283.50;5092550;28;20358;-75
2021/11/15 04:02:53;;;;;;;28.38;15.85;;;;;;;5.63;100.00;101287.00;5093836;28;20030;-77
2021/11/15 04:05:27;;;;;;;27.02;15.55;;;;;;;5.63;100.00;101297.16;5078842;28;20121;-76
2021/11/15 04:07:53;;;;;;;27.58;16.27;;;;;;;5.59;100.00;101292.13;5081347;28;20052;-75
2021/11/15 04:10:26;;;;;;;32.08;18.45;;;;;;;5.56;100.00;101303.66;5056136;28;20468;-75
2021/11/15 04:12:53;;;;;;;34.45;17.48;;;;;;;5.55;100.00;101301.97;5094940;28;20031;-75
2021/11/15 04:15:19;;;;;;;31.23;17.80;;;;;;;5.52;100.00;101296.13;5047677;28;20048;-75
2021/11/15 04:17:45;;;;;;;31.17;17.95;;;;;;;5.52;100.00;101299.72;5073459;28;20032;-75
2021/11/15 04:20:12;;;;;;;32.35;17.00;;;;;;;5.48;100.00;101304.00;5070084;28;20028;-75
2021/11/15 04:22:37;;;;;;;30.48;16.23;;;;;;;5.46;100.00;101303.44;5080717;28;20034;-75
2021/11/15 04:25:04;;;;;;;26.92;17.13;;;;;;;5.45;100.00;101300.91;5073677;28;20032;-75
2021/11/15 04:27:29;;;;;;;33.20;17.27;;;;;;;5.41;100.00;101305.22;5086716;28;20062;-75
2021/11/15 04:29:55;;;;;;;30.42;16.85;;;;;;;5.38;100.00;101307.38;5057776;28;20033;-76
2021/11/15 04:32:20;;;;;;;28.63;16.80;;;;;;;5.37;100.00;101307.59;5087518;28;20039;-75
2021/11/15 04:34:46;;;;;;;27.05;15.60;;;;;;;5.38;100.00;101309.31;5084054;28;20031;-76
2021/11/15 04:37:11;;;;;;;31.23;17.65;;;;;;;5.29;100.00;101313.47;5059991;28;20036;-75
2021/11/15 04:39:37;;;;;;;29.90;16.58;;;;;;;5.28;100.00;101322.81;5090171;28;20028;-76
2021/11/15 04:42:02;;;;;;;36.15;19.58;;;;;;;5.31;100.00;101325.09;5048258;28;20146;-76
2021/11/15 04:44:28;;;;;;;31.38;17.80;;;;;;;5.26;100.00;101334.06;5093238;28;20032;-76
2021/11/15 04:46:53;;;;;;;31.40;17.63;;;;;;;5.24;100.00;101339.00;5089066;28;20025;-76
2021/11/15 04:49:19;;;;;;;31.20;17.58;;;;;;;5.25;100.00;101345.34;5065514;28;20155;-75
2021/11/15 04:51:44;;;;;;;33.75;19.42;;;;;;;5.23;100.00;101350.25;5061049;28;20060;-76
2021/11/15 04:54:11;;;;;;;30.65;17.50;;;;;;;5.24;100.00;101351.94;5073489;28;20032;-76
2021/11/15 04:56:37;;;;;;;51.03;24.30;;;;;;;5.21;100.00;101350.50;5091215;28;20025;-76
2021/11/15 04:59:02;;;;;;;49.20;24.50;;;;;;;5.19;100.00;101360.91;5076520;28;20488;-76
2021/11/15 05:01:28;;;;;;;57.08;28.33;;;;;;;5.15;100.00;101357.78;5070707;28;20472;-76
2021/11/15 05:03:53;;;;;;;63.22;27.08;;;;;;;5.17;100.00;101365.81;5083464;28;20036;-76
2021/11/15 05:06:19;;;;;;;59.28;28.70;;;;;;;5.19;100.00;101362.81;5079742;28;20033;-75
2021/11/15 05:08:46;;;;;;;59.15;27.38;;;;;;;5.18;100.00;101367.47;5056945;28;20028;-76
2021/11/15 05:11:11;;;;;;;73.88;31.55;;;;;;;5.23;100.00;101367.59;5076692;28;20024;-76
2021/11/15 05:13:36;;;;;;;73.35;30.83;;;;;;;5.30;100.00;101365.59;5050927;28;20063;-76
2021/11/15 05:16:02;;;;;;;81.60;31.88;;;;;;;5.28;100.00;101367.72;5057837;28;20057;-76
2021/11/15 05:18:28;;;;;;;76.07;32.08;;;;;;;5.33;100.00;101369.78;5077430;28;20119;-76
2021/11/15 05:20:54;;;;;;;97.07;35.03;;;;;;;5.35;100.00;101367.63;5077313;28;20499;-76
2021/11/15 05:23:19;;;;;;;79.18;33.70;;;;;;;5.37;100.00;101365.47;5091324;28;20062;-76
2021/11/15 05:25:44;;;;;;;68.15;30.80;;;;;;;5.37;100.00;101380.06;5065009;28;20392;-76
2021/11/15 05:28:10;;;;;;;77.72;33.65;;;;;;;5.37;100.00;101376.47;5073342;28;20028;-76
2021/11/15 05:30:36;;;;;;;81.68;34.15;;;;;;;5.42;100.00;101373.84;5089001;28;20077;-76
2021/11/15 05:33:01;;;;;;;72.85;32.72;;;;;;;5.54;100.00;101371.09;5094224;28;20472;-76
2021/11/15 05:35:27;;;;;;;66.47;31.35;;;;;;;5.57;100.00;101374.22;5065079;28;20092;-76
2021/11/15 05:37:53;;;;;;;80.38;34.50;;;;;;;5.59;100.00;101371.22;5071236;28;20031;-76
2021/11/15 05:40:19;;;;;;;79.93;35.33;;;;;;;5.60;100.00;101372.91;5083769;28;20038;-76
2021/11/15 05:42:45;;;;;;;75.15;32.92;;;;;;;5.68;100.00;101366.19;5056202;28;20539;-76
2021/11/15 05:45:11;;;;;;;67.90;31.27;;;;;;;5.71;100.00;101362.94;5074086;28;20107;-76
2021/11/15 05:47:36;;;;;;;74.32;34.22;;;;;;;5.71;100.00;101366.56;5062902;28;20028;-76
2021/11/15 05:50:04;;;;;;;76.53;33.40;;;;;;;5.80;100.00;101364.25;5097543;28;20024;-75
2021/11/15 05:52:29;;;;;;;74.50;34.63;;;;;;;5.76;100.00;101357.53;5094762;28;20036;-75
2021/11/15 05:54:55;;;;;;;94.15;37.38;;;;;;;5.79;100.00;101349.66;5080322;28;20061;-75
2021/11/15 05:57:20;;;;;;;79.28;33.78;;;;;;;5.81;100.00;101354.91;5049909;28;20393;-76
2021/11/15 05:59:46;;;;;;;66.65;30.70;;;;;;;5.84;100.00;101351.66;5076699;28;20111;-75
2021/11/15 06:02:12;;;;;;;73.80;34.28;;;;;;;5.91;100.00;101351.56;5062148;28;20041;-75
2021/11/15 06:04:38;;;;;;;63.22;31.25;;;;;;;5.91;100.00;101352.38;5080936;28;20036;-75
2021/11/15 06:07:04;;;;;;;62.35;31.55;;;;;;;5.92;100.00;101340.25;5092014;28;20115;-75
2021/11/15 06:09:29;;;;;;;67.38;33.95;;;;;;;5.91;100.00;101346.03;5092176;28;20028;-75
2021/11/15 06:11:55;;;;;;;63.72;31.98;;;;;;;5.93;100.00;101347.47;5068766;28;20032;-75
2021/11/15 06:14:20;;;;;;;61.10;31.42;;;;;;;5.93;100.00;101333.69;5086034;28;20036;-77
2021/11/15 06:16:46;;;;;;;64.53;32.65;;;;;;;5.96;100.00;101332.38;5088043;28;20044;-75
2021/11/15 06:19:11;;;;;;;57.67;31.95;;;;;;;5.96;100.00;101335.97;5080348;28;20035;-75
2021/11/15 06:21:37;;;;;;;63.95;33.70;;;;;;;5.91;100.00;101346.88;5095758;28;20077;-75
2021/11/15 06:24:03;;;;;;;62.33;33.53;;;;;;;5.89;100.00;101343.50;5094334;28;20404;-75
2021/11/15 06:26:29;;;;;;;59.13;32.33;;;;;;;5.90;100.00;101347.09;5098491;28;20035;-74
2021/11/15 06:28:55;;;;;;;56.78;30.67;;;;;;;5.86;100.00;101349.50;5075699;28;20024;-75
2021/11/15 06:31:21;;;;;;;57.78;29.80;;;;;;;5.86;100.00;101359.72;5095050;28;20080;-75
2021/11/15 06:33:49;;;;;;;54.95;29.77;;;;;;;5.79;100.00;101357.91;5065707;28;20055;-74
2021/11/15 06:36:19;;;;;;;53.47;29.10;;;;;;;5.78;100.00;101345.19;5089982;28;20028;-74
2021/11/15 06:38:44;;;;;;;62.83;30.30;;;;;;;5.75;100.00;101351.19;5089568;28;20031;-75
2021/11/15 06:41:10;;;;;;;56.40;29.27;;;;;;;5.75;100.00;101353.94;5076843;28;20036;-75
2021/11/15 06:43:35;;;;;;;52.60;27.90;;;;;;;5.75;100.00;101348.44;5074593;28;20047;-75
2021/11/15 06:46:01;;;;;;;49.30;26.95;;;;;;;5.70;100.00;101355.75;5097275;28;20657;-75
2021/11/15 06:48:27;;;;;;;46.35;26.63;;;;;;;5.67;100.00;101353.47;5067919;28;20028;-75
2021/11/15 06:50:52;;;;;;;47.90;26.35;;;;;;;5.65;100.00;101361.16;5076803;28;20035;-75
2021/11/15 06:53:18;;;;;;;46.35;26.30;;;;;;;5.63;100.00;101364.16;5093185;28;20058;-74
2021/11/15 06:55:44;;;;;;;45.65;24.10;;;;;;;5.59;100.00;101377.56;5095837;28;20036;-75
2021/11/15 06:58:09;;;;;;;47.38;25.85;;;;;;;5.53;100.00;101375.75;5088962;28;20498;-75
2021/11/15 07:00:35;;;;;;;47.42;27.52;;;;;;;5.49;100.00;101377.34;5053436;28;20024;-75
2021/11/15 07:03:00;;;;;;;51.97;27.05;;;;;;;5.45;100.00;101376.13;5096916;28;20055;-75
2021/11/15 07:05:26;;;;;;;47.33;25.38;;;;;;;5.42;100.00;101378.53;5094033;28;20040;-75
2021/11/15 07:07:52;;;;;;;47.28;25.52;;;;;;;5.42;100.00;101379.34;5075259;28;20031;-74
2021/11/15 07:10:18;;;;;;;47.95;26.33;;;;;;;5.33;100.00;101397.31;5083998;28;20020;-73
2021/11/15 07:12:44;;;;;;;49.92;26.05;;;;;;;5.32;100.00;101390.13;5094450;28;20089;-74
2021/11/15 07:15:10;;;;;;;49.35;26.63;;;;;;;5.24;100.00;101385.00;5067113;28;20036;-74
2021/11/15 07:17:35;;;;;;;60.10;30.40;;;;;;;5.16;100.00;101388.91;5089485;28;20511;-74
2021/11/15 07:20:01;;;;;;;54.35;28.13;;;;;;;5.09;100.00;101397.25;5097344;28;20051;-73
2021/11/15 07:22:26;;;;;;;59.42;28.02;;;;;;;5.09;100.00;101399.19;5092392;28;20050;-71
2021/11/15 07:24:52;;;;;;;59.67;28.05;;;;;;;5.09;100.00;101397.25;5096465;28;20039;-72
2021/11/15 07:27:17;;;;;;;55.80;28.13;;;;;;;5.09;100.00;101407.44;5083423;28;20039;-72
2021/11/15 07:29:43;;;;;;;54.28;26.77;;;;;;;5.09;100.00;101407.44;5092014;28;20028;-72
2021/11/15 07:32:12;;;;;;;56.80;28.25;;;;;;;5.03;100.00;101398.22;5076062;28;20475;-72
2021/11/15 07:34:38;;;;;;;56.90;28.35;;;;;;;4.98;100.00;101406.34;5062386;28;20028;-72
2021/11/15 07:37:04;;;;;;;62.75;30.52;;;;;;;4.98;100.00;101409.09;5067514;28;20043;-71
2021/11/15 07:39:30;;;;;;;60.28;30.40;;;;;;;4.97;100.00;101412.94;5091118;28;20029;-72
2021/11/15 07:41:55;;;;;;;66.00;30.35;;;;;;;4.93;100.00;101418.06;5083039;28;20032;-72
2021/11/15 07:44:21;;;;;;;74.13;34.13;;;;;;;4.87;100.00;101418.16;5072247;28;20037;-72
2021/11/15 07:46:48;;;;;;;81.68;34.53;;;;;;;4.84;100.00;101427.72;5091518;28;20518;-72
2021/11/15 07:49:14;;;;;;;79.45;34.35;;;;;;;4.87;100.00;101432.75;5065260;28;20024;-72
2021/11/15 07:51:40;;;;;;;65.32;30.55;;;;;;;4.93;100.00;101437.34;5093725;28;20051;-72
2021/11/15 07:54:07;;;;;;;66.38;30.95;;;;;;;4.99;100.00;101431.97;5094325;28;20502;-72
2021/11/15 07:56:32;;;;;;;68.22;31.17;;;;;;;5.06;100.00;101424.44;5081144;28;20047;-72
2021/11/15 07:58:58;;;;;;;64.43;31.58;;;;;;;5.08;100.00;101433.31;5091582;28;20023;-72
2021/11/15 08:01:23;;;;;;;58.58;29.05;;;;;;;5.16;100.00;101430.22;5093753;28;20024;-72
2021/11/15 08:03:49;;;;;;;75.82;32.50;;;;;;;5.15;100.00;101429.38;5079729;28;20032;-72
2021/11/15 08:06:16;;;;;;;61.63;29.73;;;;;;;5.18;100.00;101422.53;5067933;28;20032;-71
2021/11/15 08:08:41;;;;;;;65.93;30.95;;;;;;;5.21;100.00;101432.25;5091000;28;20063;-72
2021/11/15 08:11:07;;;;;;;82.45;35.33;;;;;;;5.23;100.00;101427.34;5083178;28;20063;-72
2021/11/15 08:13:33;;;;;;;64.70;30.48;;;;;;;5.31;100.00;101422.34;5082589;28;20025;-72
2021/11/15 08:15:58;;;;;;;65.28;32.08;;;;;;;5.38;100.00;101422.25;5090667;28;20121;-72
2021/11/15 08:18:24;;;;;;;70.97;32.35;;;;;;;5.49;100.00;101413.16;5085037;28;20023;-71
2021/11/15 08:20:49;;;;;;;59.28;28.95;;;;;;;5.60;100.00;101425.28;5092813;28;20032;-72
2021/11/15 08:23:15;;;;;;;61.60;29.65;;;;;;;5.71;100.00;101418.06;5093657;28;20032;-72
2021/11/15 08:25:51;;;;;;;60.53;29.92;;;;;;;5.81;100.00;101426.56;5088806;28;20036;-71
2021/11/15 08:28:17;;;;;;;63.30;30.20;;;;;;;5.89;100.00;101430.91;5085543;28;20024;-71
2021/11/15 08:30:43;;;;;;;60.58;30.17;;;;;;;5.97;100.00;101428.66;5073751;28;20063;-71
2021/11/15 08:33:08;;;;;;;69.20;33.47;;;;;;;6.10;100.00;101429.47;5082345;28;20035;-71
2021/11/15 08:35:34;;;;;;;72.43;31.92;;;;;;;6.16;100.00;101423.00;5076700;28;20036;-71
2021/11/15 08:38:14;;;;;;;63.33;29.98;;;;;;;6.26;100.00;101437.00;5091813;28;20122;-72
2021/11/15 08:40:40;;;;;;;71.88;33.03;;;;;;;6.29;100.00;101435.66;5085335;28;20024;-71
2021/11/15 08:43:06;;;;;;;66.30;31.90;;;;;;;6.39;100.00;101427.63;5079762;28;20407;-72
2021/11/15 08:45:31;;;;;;;74.45;33.17;;;;;;;6.47;100.00;101430.81;5088101;28;20129;-72
2021/11/15 08:47:57;;;;;;;67.28;31.77;;;;;;;6.60;100.00;101423.34;5083929;28;20050;-71
2021/11/15 08:50:23;;;;;;;71.97;32.88;;;;;;;6.70;100.00;101421.63;5083705;28;20024;-72
2021/11/15 08:52:48;;;;;;;69.55;31.27;;;;;;;6.82;100.00;101418.81;5082903;28;20040;-71
2021/11/15 08:55:14;;;;;;;64.95;32.40;;;;;;;6.93;100.00;101422.59;5088971;28;20032;-72
2021/11/15 08:57:39;;;;;;;69.50;33.95;;;;;;;6.98;100.00;101424.63;5082975;28;20028;-72
2021/11/15 09:00:05;;;;;;;69.43;32.75;;;;;;;7.07;100.00;101429.50;5092973;28;20040;-72
2021/11/15 09:02:31;;;;;;;72.30;33.65;;;;;;;7.16;100.00;101432.72;5093624;28;20028;-72
2021/11/15 09:04:57;;;;;;;78.95;34.13;;;;;;;7.22;100.00;101437.25;5082532;28;24268;-72
2021/11/15 09:07:22;;;;;;;71.82;32.85;;;;;;;7.29;100.00;101435.13;5082652;28;20059;-72
2021/11/15 09:09:48;;;;;;;73.85;34.30;;;;;;;7.32;100.00;101431.88;5090168;28;20024;-71
2021/11/15 09:12:15;;;;;;;76.85;35.30;;;;;;;7.42;100.00;101439.50;5093526;28;20411;-72
2021/11/15 09:14:40;;;;;;;76.78;34.67;;;;;;;7.50;100.00;101433.56;5079906;28;20040;-72
2021/11/15 09:17:06;;;;;;;76.47;35.78;;;;;;;7.59;100.00;101431.22;5092368;28;20094;-73
2021/11/15 09:19:31;;;;;;;71.70;34.03;;;;;;;7.71;100.00;101429.19;5096528;28;20040;-71
2021/11/15 09:21:57;;;;;;;74.20;35.30;;;;;;;7.77;100.00;101428.22;5095142;28;20054;-72
2021/11/15 09:24:23;;;;;;;76.72;34.00;;;;;;;7.87;100.00;101430.28;5091235;28;20029;-72
2021/11/15 09:26:48;;;;;;;74.05;34.22;;;;;;;7.92;100.00;101427.59;5073369;28;20031;-72
2021/11/15 09:29:15;;;;;;;70.40;33.47;;;;;;;7.96;100.00;101427.91;5084638;28;20032;-72
2021/11/15 09:31:40;;;;;;;75.32;35.08;;;;;;;7.96;100.00;101425.16;5089635;28;20434;-71
2021/11/15 09:34:06;;;;;;;77.68;33.83;;;;;;;7.97;100.00;101426.84;5038438;28;20036;-72
2021/11/15 09:36:32;;;;;;;73.22;35.58;;;;;;;8.02;100.00;101424.97;5098095;28;20379;-72
2021/11/15 09:38:58;;;;;;;81.00;36.35;;;;;;;7.94;100.00;101430.09;5096910;28;20037;-71
2021/11/15 09:41:24;;;;;;;74.53;35.25;;;;;;;8.03;100.00;101439.66;5094921;28;20024;-72
2021/11/15 09:43:50;;;;;;;68.30;32.58;;;;;;;8.10;100.00;101437.53;5086268;28;20113;-71
2021/11/15 09:46:17;;;;;;;68.75;32.33;;;;;;;8.18;100.00;101436.25;5076621;28;20078;-72
2021/11/15 09:48:45;;;;;;;70.63;32.33;;;;;;;8.21;100.00;101425.50;5091943;28;20034;-71
2021/11/15 09:51:11;;;;;;;72.03;33.78;;;;;;;8.22;100.00;101434.66;5098087;28;20548;-72
2021/11/15 09:53:37;;;;;;;71.35;31.98;;;;;;;8.20;100.00;101423.00;5074404;28;20032;-71
2021/11/15 09:56:04;;;;;;;74.65;34.22;;;;;;;8.24;100.00;101430.53;5089428;28;20024;-71
2021/11/15 09:58:29;;;;;;;70.43;33.80;;;;;;;8.32;100.00;101445.84;5085173;28;20037;-71
2021/11/15 10:00:55;;;;;;;67.50;32.40;;;;;;;8.34;100.00;101440.06;5097644;28;20067;-71
2021/11/15 10:03:20;;;;;;;64.03;31.65;;;;;;;8.45;100.00;101444.69;5092226;28;20492;-71
2021/11/15 10:05:46;;;;;;;67.15;32.13;;;;;;;8.53;100.00;101441.47;5088501;28;20441;-71
2021/11/15 10:08:12;;;;;;;72.07;35.05;;;;;;;8.53;100.00;101435.94;5097922;28;20750;-71
2021/11/15 10:10:56;;;;;;;65.07;30.73;;;;;;;8.63;100.00;101444.34;5094095;28;20029;-71
2021/11/15 10:13:25;;;;;;;61.33;30.08;;;;;;;8.77;100.00;101446.72;5096779;28;20036;-72
2021/11/15 10:16:04;;;;;;;65.80;31.60;;;;;;;8.81;100.00;101454.25;5084071;28;20048;-71
2021/11/15 10:18:29;;;;;;;66.30;31.50;;;;;;;8.85;100.00;101457.34;5087669;28;20392;-71
2021/11/15 10:20:55;;;;;;;60.75;29.85;;;;;;;8.90;100.00;101449.09;5088320;28;20034;-72
2021/11/15 10:23:31;;;;;;;66.25;32.20;;;;;;;8.99;100.00;101455.84;5097247;28;20031;-71
2021/11/15 10:26:01;;;;;;;57.90;30.98;;;;;;;9.02;100.00;101444.22;5095686;28;20032;-71
2021/11/15 10:28:29;;;;;;;60.85;31.20;;;;;;;9.04;100.00;101442.03;5093701;28;20088;-71
2021/11/15 10:30:54;;;;;;;58.83;28.77;;;;;;;9.07;100.00;101441.50;5095714;28;20031;-71
2021/11/15 10:33:20;;;;;;;56.78;29.60;;;;;;;9.18;100.00;101442.47;5087244;28;20032;-72
2021/11/15 10:35:51;;;;;;;55.13;27.58;;;;;;;9.27;100.00;101434.50;5073842;28;20082;-72
2021/11/15 10:38:16;;;;;;;61.45;31.05;;;;;;;9.37;100.00;101440.16;5098037;28;20028;-71
2021/11/15 10:40:42;;;;;;;53.47;28.85;;;;;;;9.46;100.00;101438.56;5089324;28;20025;-72
2021/11/15 10:43:08;;;;;;;54.22;28.77;;;;;;;9.48;100.00;101439.13;5092536;28;20040;-72
2021/11/15 10:45:35;;;;;;;59.15;31.17;;;;;;;9.54;100.00;101440.00;5085425;28;20032;-72
2021/11/15 10:48:02;;;;;;;60.28;30.45;;;;;;;9.56;100.00;101444.19;5083389;28;20029;-72
2021/11/15 10:50:50;;;;;;;59.25;29.60;;;;;;;9.62;100.00;101443.13;5077037;28;20533;-72
2021/11/15 10:53:27;;;;;;;60.25;31.30;;;;;;;9.68;100.00;101434.84;5095298;28;20028;-72
2021/11/15 10:56:27;;;;;;;60.38;29.88;;;;;;;9.69;100.00;101428.19;5097193;28;20396;-72
2021/11/15 10:58:54;;;;;;;62.38;30.13;;;;;;;9.75;100.00;101429.91;5094738;28;20029;-72
2021/11/15 11:01:21;;;;;;;55.08;29.85;;;;;;;9.88;100.00;101428.63;5094675;28;20036;-72
2021/11/15 11:03:46;;;;;;;56.70;28.10;;;;;;;9.91;100.00;101434.47;5094876;28;20051;-72
2021/11/15 11:06:15;;;;;;;53.30;28.38;;;;;;;9.96;100.00;101426.16;5096438;28;20070;-72